CCA123 ZBAA-ZUUU
Flight info
| Callsign | CCA123 |
|---|---|
| Flight time | N/A |
| Altitude | 3500 |
| Route | RUSDO W45 VAGBI B215 EKETA B208 TYN W175 AVKES G212 SUBUL W230 AKDIK STAR |
| Aircraft | B744/H-SDE/L |
Departure
| Time | 2026-05-07 10:06 |
|---|---|
| Airport | Beijing Capital International Airport (ZBAA) |
Arrival
| Time | N/A |
|---|---|
| Airport | Chengdu Shuangliu International Airport (ZUUU) |
| Time | Latitude | Longitude | Altitude | Speed | Heading |
|---|---|---|---|---|---|
| 2026-05-07 09:46 | 40.07469 | 116.60231 | 128 ft | 0 kts | 264° |
| 2026-05-07 09:53 | 40.07469 | 116.60239 | 128 ft | 2 kts | 264° |
| 2026-05-07 09:53 | 40.07471 | 116.60261 | 128 ft | 3 kts | 264° |
| 2026-05-07 09:53 | 40.07473 | 116.60287 | 128 ft | 3 kts | 264° |
| 2026-05-07 09:54 | 40.07476 | 116.60314 | 128 ft | 3 kts | 264° |
| 2026-05-07 09:54 | 40.07478 | 116.60337 | 128 ft | 0 kts | 264° |
| 2026-05-07 09:55 | 40.07478 | 116.60346 | 128 ft | 2 kts | 264° |
| 2026-05-07 09:55 | 40.07479 | 116.60357 | 128 ft | 0 kts | 264° |
| 2026-05-07 09:56 | 40.07486 | 116.60319 | 128 ft | 8 kts | 311° |
| 2026-05-07 09:56 | 40.07528 | 116.60279 | 128 ft | 7 kts | 324° |
| 2026-05-07 09:57 | 40.07574 | 116.60233 | 128 ft | 13 kts | 317° |
| 2026-05-07 09:57 | 40.07617 | 116.60148 | 128 ft | 8 kts | 296° |
| 2026-05-07 09:57 | 40.07640 | 116.60087 | 128 ft | 7 kts | 296° |
| 2026-05-07 09:57 | 40.07666 | 116.60034 | 128 ft | 7 kts | 329° |
| 2026-05-07 09:58 | 40.07728 | 116.60013 | 128 ft | 14 kts | 352° |
| 2026-05-07 09:58 | 40.07822 | 116.59996 | 128 ft | 13 kts | 352° |
| 2026-05-07 09:58 | 40.07911 | 116.59980 | 128 ft | 13 kts | 352° |
| 2026-05-07 09:58 | 40.07997 | 116.59964 | 128 ft | 12 kts | 352° |
| 2026-05-07 09:59 | 40.08079 | 116.59949 | 128 ft | 12 kts | 352° |
| 2026-05-07 09:59 | 40.08158 | 116.59935 | 128 ft | 11 kts | 352° |
| 2026-05-07 09:59 | 40.08234 | 116.59921 | 128 ft | 11 kts | 354° |
| 2026-05-07 09:59 | 40.08330 | 116.59916 | 128 ft | 16 kts | 358° |
| 2026-05-07 10:00 | 40.08437 | 116.59905 | 128 ft | 13 kts | 353° |
| 2026-05-07 10:00 | 40.08519 | 116.59894 | 128 ft | 11 kts | 355° |
| 2026-05-07 10:00 | 40.08526 | 116.59894 | 128 ft | 11 kts | 355° |
| 2026-05-07 10:02 | 40.08549 | 116.59891 | 128 ft | 11 kts | 355° |
| 2026-05-07 10:02 | 40.08625 | 116.59883 | 128 ft | 11 kts | 355° |
| 2026-05-07 10:02 | 40.08697 | 116.59875 | 128 ft | 10 kts | 355° |
| 2026-05-07 10:02 | 40.08767 | 116.59867 | 128 ft | 10 kts | 355° |
| 2026-05-07 10:03 | 40.08834 | 116.59858 | 128 ft | 9 kts | 345° |
| 2026-05-07 10:03 | 40.08894 | 116.59837 | 128 ft | 7 kts | 348° |
| 2026-05-07 10:03 | 40.08938 | 116.59823 | 128 ft | 7 kts | 335° |
| 2026-05-07 10:03 | 40.08967 | 116.59778 | 128 ft | 7 kts | 287° |
| 2026-05-07 10:04 | 40.08973 | 116.59720 | 128 ft | 6 kts | 271° |
| 2026-05-07 10:04 | 40.08970 | 116.59662 | 128 ft | 6 kts | 266° |
| 2026-05-07 10:04 | 40.08958 | 116.59583 | 128 ft | 10 kts | 231° |
| 2026-05-07 10:04 | 40.08909 | 116.59527 | 128 ft | 7 kts | 217° |
| 2026-05-07 10:05 | 40.08875 | 116.59507 | 128 ft | 9 kts | 193° |
| 2026-05-07 10:05 | 40.08821 | 116.59504 | 128 ft | 1 kts | 174° |
| 2026-05-07 10:05 | 40.08820 | 116.59504 | 128 ft | 0 kts | 174° |
| 2026-05-07 10:06 | 40.08721 | 116.59518 | 128 ft | 45 kts | 174° |
| 2026-05-07 10:06 | 40.08135 | 116.59605 | 128 ft | 123 kts | 173° |
| 2026-05-07 10:06 | 40.07044 | 116.59769 | 187 ft | 183 kts | 173° |
| 2026-05-07 10:06 | 40.05737 | 116.59917 | 916 ft | 189 kts | 177° |
| 2026-05-07 10:07 | 40.04432 | 116.59758 | 1853 ft | 183 kts | 189° |
| 2026-05-07 10:07 | 40.03297 | 116.59242 | 2548 ft | 172 kts | 202° |
| 2026-05-07 10:07 | 40.02322 | 116.58189 | 2512 ft | 196 kts | 226° |
| 2026-05-07 10:07 | 40.01628 | 116.56649 | 2808 ft | 196 kts | 243° |
| 2026-05-07 10:08 | 40.01156 | 116.55025 | 3374 ft | 188 kts | 251° |
| 2026-05-07 10:08 | 40.00837 | 116.53405 | 3896 ft | 180 kts | 257° |
| 2026-05-07 10:08 | 40.00593 | 116.51821 | 4319 ft | 176 kts | 258° |
| 2026-05-07 10:08 | 40.00277 | 116.50289 | 4658 ft | 176 kts | 255° |
| 2026-05-07 10:09 | 39.99962 | 116.48754 | 4979 ft | 172 kts | 255° |
| 2026-05-07 10:09 | 39.99671 | 116.47212 | 5198 ft | 179 kts | 256° |
| 2026-05-07 10:09 | 39.99360 | 116.45604 | 5407 ft | 185 kts | 256° |
| 2026-05-07 10:09 | 39.99056 | 116.43949 | 5670 ft | 190 kts | 257° |
| 2026-05-07 10:10 | 39.98781 | 116.42224 | 5906 ft | 197 kts | 258° |
| 2026-05-07 10:10 | 39.98556 | 116.40476 | 6230 ft | 197 kts | 261° |
| 2026-05-07 10:10 | 39.98355 | 116.38718 | 6582 ft | 198 kts | 261° |
| 2026-05-07 10:10 | 39.98042 | 116.36931 | 6741 ft | 208 kts | 256° |
| 2026-05-07 10:11 | 39.97551 | 116.35107 | 6835 ft | 217 kts | 251° |
| 2026-05-07 10:11 | 39.97011 | 116.33251 | 7092 ft | 218 kts | 249° |
| 2026-05-07 10:11 | 39.96453 | 116.31443 | 7469 ft | 211 kts | 248° |
| 2026-05-07 10:11 | 39.95916 | 116.29688 | 7741 ft | 213 kts | 249° |
| 2026-05-07 10:12 | 39.95383 | 116.27798 | 7715 ft | 229 kts | 250° |
| 2026-05-07 10:12 | 39.94887 | 116.25778 | 7848 ft | 238 kts | 253° |
| 2026-05-07 10:12 | 39.94462 | 116.23666 | 8083 ft | 243 kts | 256° |
| 2026-05-07 10:12 | 39.94141 | 116.21498 | 8514 ft | 245 kts | 261° |
| 2026-05-07 10:13 | 39.93912 | 116.19305 | 9028 ft | 242 kts | 260° |
| 2026-05-07 10:13 | 39.93312 | 116.17241 | 9339 ft | 248 kts | 243° |
| 2026-05-07 10:13 | 39.92371 | 116.15333 | 9701 ft | 251 kts | 236° |
| 2026-05-07 10:13 | 39.91412 | 116.13465 | 10165 ft | 249 kts | 238° |
| 2026-05-07 10:14 | 39.90600 | 116.11462 | 10611 ft | 252 kts | 244° |
| 2026-05-07 10:14 | 39.89956 | 116.09231 | 10615 ft | 273 kts | 252° |
| 2026-05-07 10:14 | 39.89438 | 116.06760 | 10738 ft | 291 kts | 256° |
| 2026-05-07 10:14 | 39.88947 | 116.04114 | 10879 ft | 309 kts | 257° |
| 2026-05-07 10:15 | 39.88435 | 116.01340 | 11020 ft | 328 kts | 256° |
| 2026-05-07 10:15 | 39.87921 | 115.98374 | 11388 ft | 339 kts | 258° |
| 2026-05-07 10:15 | 39.87441 | 115.95322 | 11774 ft | 347 kts | 258° |
| 2026-05-07 10:15 | 39.86895 | 115.92244 | 11867 ft | 350 kts | 256° |
| 2026-05-07 10:16 | 39.86278 | 115.89152 | 12179 ft | 355 kts | 255° |
| 2026-05-07 10:16 | 39.85605 | 115.86051 | 12921 ft | 357 kts | 254° |
| 2026-05-07 10:16 | 39.84922 | 115.82932 | 13616 ft | 360 kts | 254° |
| 2026-05-07 10:16 | 39.84224 | 115.79795 | 14297 ft | 363 kts | 253° |
| 2026-05-07 10:17 | 39.83504 | 115.76624 | 14961 ft | 367 kts | 253° |
| 2026-05-07 10:17 | 39.82780 | 115.73470 | 15603 ft | 370 kts | 253° |
| 2026-05-07 10:17 | 39.82035 | 115.70242 | 16253 ft | 374 kts | 253° |
| 2026-05-07 10:17 | 39.81281 | 115.66991 | 16885 ft | 377 kts | 253° |
| 2026-05-07 10:18 | 39.80520 | 115.63715 | 17500 ft | 381 kts | 253° |
| 2026-05-07 10:18 | 39.79750 | 115.60400 | 18103 ft | 384 kts | 253° |
| 2026-05-07 10:18 | 39.78974 | 115.57063 | 18693 ft | 388 kts | 253° |
| 2026-05-07 10:18 | 39.78191 | 115.53698 | 19057 ft | 391 kts | 253° |
| 2026-05-07 10:19 | 39.77401 | 115.50301 | 19394 ft | 395 kts | 253° |
| 2026-05-07 10:19 | 39.76478 | 115.46932 | 19909 ft | 399 kts | 243° |
| 2026-05-07 10:19 | 39.74920 | 115.43944 | 20496 ft | 400 kts | 231° |
| 2026-05-07 10:19 | 39.73066 | 115.41229 | 21089 ft | 402 kts | 226° |
| 2026-05-07 10:20 | 39.71069 | 115.38664 | 21637 ft | 405 kts | 223° |
| 2026-05-07 10:20 | 39.68983 | 115.36186 | 22152 ft | 408 kts | 221° |
| 2026-05-07 10:20 | 39.66839 | 115.33735 | 22662 ft | 412 kts | 221° |
| 2026-05-07 10:20 | 39.64677 | 115.31268 | 23155 ft | 415 kts | 221° |
| 2026-05-07 10:21 | 39.62535 | 115.28810 | 23350 ft | 416 kts | 221° |
| 2026-05-07 10:21 | 39.60366 | 115.26310 | 23396 ft | 417 kts | 221° |
| 2026-05-07 10:21 | 39.58196 | 115.23802 | 23495 ft | 420 kts | 221° |
| 2026-05-07 10:21 | 39.56006 | 115.21267 | 23958 ft | 424 kts | 222° |
| 2026-05-07 10:22 | 39.53801 | 115.18714 | 24463 ft | 426 kts | 222° |
| 2026-05-07 10:22 | 39.51591 | 115.16154 | 24971 ft | 427 kts | 222° |
| 2026-05-07 10:22 | 39.49379 | 115.13571 | 25447 ft | 430 kts | 222° |
| 2026-05-07 10:22 | 39.47155 | 115.10957 | 25882 ft | 432 kts | 222° |
| 2026-05-07 10:23 | 39.44918 | 115.08340 | 26297 ft | 435 kts | 222° |
| 2026-05-07 10:23 | 39.42657 | 115.05704 | 26706 ft | 438 kts | 222° |
| 2026-05-07 10:23 | 39.40413 | 115.03095 | 27098 ft | 441 kts | 222° |
| 2026-05-07 10:23 | 39.38120 | 115.00434 | 27489 ft | 443 kts | 222° |
| 2026-05-07 10:24 | 39.35817 | 114.97765 | 27867 ft | 446 kts | 222° |
| 2026-05-07 10:24 | 39.33500 | 114.95085 | 28234 ft | 448 kts | 222° |
| 2026-05-07 10:24 | 39.31169 | 114.92390 | 28364 ft | 450 kts | 222° |
| 2026-05-07 10:25 | 39.26489 | 114.86990 | 28586 ft | 453 kts | 222° |
| 2026-05-07 10:25 | 39.24130 | 114.84273 | 29055 ft | 452 kts | 221° |
| 2026-05-07 10:25 | 39.21786 | 114.81574 | 29588 ft | 450 kts | 221° |
| 2026-05-07 10:25 | 39.19458 | 114.78897 | 30085 ft | 448 kts | 221° |
| 2026-05-07 10:26 | 39.17129 | 114.76221 | 30499 ft | 448 kts | 221° |
| 2026-05-07 10:26 | 39.14837 | 114.73590 | 30906 ft | 447 kts | 221° |
| 2026-05-07 10:26 | 39.12515 | 114.70927 | 31307 ft | 446 kts | 221° |
| 2026-05-07 10:26 | 39.10195 | 114.68268 | 31695 ft | 445 kts | 221° |
| 2026-05-07 10:27 | 39.07879 | 114.65617 | 32068 ft | 444 kts | 221° |
| 2026-05-07 10:27 | 39.05566 | 114.62972 | 32402 ft | 444 kts | 221° |
| 2026-05-07 10:27 | 39.03247 | 114.60323 | 32474 ft | 445 kts | 221° |
| 2026-05-07 10:28 | 38.98645 | 114.55071 | 32501 ft | 444 kts | 221° |
| 2026-05-07 10:28 | 38.94026 | 114.49810 | 32509 ft | 443 kts | 221° |
| 2026-05-07 10:29 | 38.89404 | 114.44556 | 32509 ft | 444 kts | 221° |
| 2026-05-07 10:29 | 38.84781 | 114.39310 | 32503 ft | 444 kts | 221° |
| 2026-05-07 10:30 | 38.80154 | 114.34068 | 32963 ft | 440 kts | 221° |
| 2026-05-07 10:30 | 38.77858 | 114.31472 | 33224 ft | 441 kts | 221° |
| 2026-05-07 10:30 | 38.75575 | 114.28891 | 33456 ft | 442 kts | 221° |
| 2026-05-07 10:30 | 38.73270 | 114.26288 | 33769 ft | 441 kts | 221° |
| 2026-05-07 10:31 | 38.70968 | 114.23690 | 34035 ft | 440 kts | 221° |
| 2026-05-07 10:31 | 38.68675 | 114.21106 | 34295 ft | 440 kts | 221° |
| 2026-05-07 10:31 | 38.67153 | 114.19391 | 34458 ft | 439 kts | 221° |